Time;durP1;ratioP1;P1;durP2;ratioP2;P2;SDS_P1;SDS_P2;PMS_P1;PMS_P2;Temp;Humidity;BMP_temperature;BMP_pressure;BME280_temperature;BME280_humidity;BME280_pressure;Samples;Min_cycle;Max_cycle;Signal;HPM_P1;HPM_P2
2024/01/27 00:01:35;;;;;;;4.80;2.47;;;5.20;99.90;;;;;;5058173;28;20424;-70
2024/01/27 00:04:00;;;;;;;5.90;2.50;;;5.10;99.90;;;;;;5076436;28;20462;-70
2024/01/27 00:06:26;;;;;;;3.40;2.47;;;5.10;99.90;;;;;;5076130;28;20810;-71
2024/01/27 00:08:51;;;;;;;4.00;2.47;;;5.10;99.90;;;;;;5076253;28;20706;-70
2024/01/27 00:11:17;;;;;;;6.93;2.30;;;5.10;99.90;;;;;;5057428;28;20566;-70
2024/01/27 00:13:43;;;;;;;6.57;2.70;;;5.10;99.90;;;;;;5075402;28;20572;-70
2024/01/27 00:16:09;;;;;;;10.03;3.07;;;5.10;99.90;;;;;;5075260;28;20235;-71
2024/01/27 00:18:37;;;;;;;3.67;2.70;;;5.10;99.90;;;;;;5075190;28;20253;-71
2024/01/27 00:21:03;;;;;;;3.40;2.20;;;5.10;99.90;;;;;;5064505;28;20409;-71
2024/01/27 00:23:28;;;;;;;6.40;2.70;;;5.10;99.90;;;;;;5054864;28;20912;-71
2024/01/27 00:25:54;;;;;;;4.27;2.60;;;5.00;99.90;;;;;;5042440;28;20408;-70
2024/01/27 00:28:19;;;;;;;4.13;2.00;;;5.00;99.90;;;;;;5075350;28;20166;-71
2024/01/27 00:30:45;;;;;;;5.37;2.33;;;5.00;99.90;;;;;;5074954;28;20202;-70
2024/01/27 00:33:10;;;;;;;3.60;2.23;;;4.90;99.90;;;;;;5075118;28;20190;-70
2024/01/27 00:35:36;;;;;;;3.40;2.43;;;4.90;99.90;;;;;;5075417;28;20162;-71
2024/01/27 00:38:02;;;;;;;5.83;2.60;;;4.90;99.90;;;;;;5075175;28;20202;-71
2024/01/27 00:40:28;;;;;;;5.33;3.60;;;5.00;99.90;;;;;;5074731;28;20556;-71
2024/01/27 00:42:54;;;;;;;5.37;2.67;;;4.90;99.90;;;;;;5074901;28;20405;-71
2024/01/27 00:45:22;;;;;;;6.50;3.00;;;4.90;99.90;;;;;;5074679;28;20159;-71
2024/01/27 00:47:51;;;;;;;3.60;2.33;;;4.80;99.90;;;;;;5074980;28;20396;-71
2024/01/27 00:50:17;;;;;;;2.43;2.00;;;4.70;99.90;;;;;;5074230;28;20452;-71
2024/01/27 00:52:42;;;;;;;4.77;2.17;;;4.70;99.90;;;;;;5074516;28;20477;-70
2024/01/27 00:55:08;;;;;;;3.70;2.70;;;4.70;99.90;;;;;;5074754;28;20158;-70
2024/01/27 00:57:37;;;;;;;6.20;2.80;;;4.70;99.90;;;;;;5074598;28;20215;-70
2024/01/27 01:00:07;;;;;;;2.97;2.63;;;4.70;99.90;;;;;;5074743;28;20593;-71
2024/01/27 01:02:33;;;;;;;4.43;2.73;;;4.60;99.90;;;;;;5074629;28;20954;-69
2024/01/27 01:04:58;;;;;;;11.83;3.63;;;4.50;99.90;;;;;;5073936;28;20436;-71
2024/01/27 01:07:24;;;;;;;3.93;2.53;;;4.50;99.90;;;;;;5074504;28;20204;-70
2024/01/27 01:09:49;;;;;;;3.30;2.40;;;4.50;99.90;;;;;;5074482;28;20186;-70
2024/01/27 01:12:15;;;;;;;3.90;2.20;;;4.50;99.90;;;;;;5074350;28;20189;-71
2024/01/27 01:14:41;;;;;;;3.47;2.80;;;4.40;99.90;;;;;;5074786;28;20166;-71
2024/01/27 01:17:07;;;;;;;2.13;1.73;;;4.30;99.90;;;;;;5073957;28;20174;-71
2024/01/27 01:19:32;;;;;;;3.07;2.17;;;4.30;99.90;;;;;;5074204;28;20417;-69
2024/01/27 01:21:58;;;;;;;2.83;2.40;;;4.40;99.90;;;;;;5073977;28;20197;-70
2024/01/27 01:24:23;;;;;;;2.67;2.47;;;4.40;99.90;;;;;;5073976;28;20219;-71
2024/01/27 01:26:49;;;;;;;5.30;3.00;;;4.30;99.90;;;;;;5073583;28;20170;-69
2024/01/27 01:29:15;;;;;;;5.47;2.60;;;4.30;99.90;;;;;;5073724;28;20200;-70
2024/01/27 01:31:43;;;;;;;4.20;2.40;;;4.30;99.90;;;;;;5073724;28;20190;-71
2024/01/27 01:34:09;;;;;;;4.30;2.20;;;4.20;99.90;;;;;;5073351;28;20516;-70
2024/01/27 01:36:34;;;;;;;2.53;2.20;;;4.20;99.90;;;;;;5055682;28;20438;-71
2024/01/27 01:39:00;;;;;;;5.17;3.10;;;4.10;99.90;;;;;;5073843;28;20221;-70
2024/01/27 01:41:25;;;;;;;5.63;2.07;;;4.00;99.90;;;;;;5074065;28;20162;-70
2024/01/27 01:43:51;;;;;;;6.80;2.80;;;4.00;99.90;;;;;;5073589;28;20178;-70
2024/01/27 01:46:17;;;;;;;3.40;2.33;;;4.10;99.90;;;;;;5073360;28;20235;-70
2024/01/27 01:48:43;;;;;;;3.13;2.27;;;4.20;99.90;;;;;;5054916;28;20544;-70
2024/01/27 01:51:09;;;;;;;9.93;2.40;;;4.10;99.90;;;;;;5072232;28;20489;-70
2024/01/27 01:53:34;;;;;;;3.90;2.60;;;4.10;99.90;;;;;;5073260;28;20302;-70
2024/01/27 01:56:01;;;;;;;4.50;2.47;;;4.20;99.90;;;;;;5073376;28;20400;-71
2024/01/27 01:58:33;;;;;;;3.00;2.03;;;4.20;99.90;;;;;;5055300;28;20166;-70
2024/01/27 02:01:02;;;;;;;3.57;2.47;;;4.10;99.90;;;;;;5073491;28;20518;-70
2024/01/27 02:03:28;;;;;;;2.57;2.13;;;4.10;99.90;;;;;;5073198;28;20411;-70
2024/01/27 02:05:54;;;;;;;6.60;2.97;;;4.10;99.90;;;;;;5073048;28;20409;-71
2024/01/27 02:08:20;;;;;;;4.83;3.00;;;4.00;99.90;;;;;;5073823;28;20637;-71
2024/01/27 02:10:46;;;;;;;6.40;2.67;;;4.00;99.90;;;;;;5072855;28;20455;-70
2024/01/27 02:13:21;;;;;;;3.70;2.83;;;4.00;99.90;;;;;;5072982;28;20198;-71
2024/01/27 02:15:48;;;;;;;3.87;2.90;;;4.00;99.90;;;;;;5072622;28;20172;-70
2024/01/27 02:18:14;;;;;;;2.63;2.40;;;4.00;99.90;;;;;;5071162;28;20417;-71
2024/01/27 02:20:40;;;;;;;4.53;2.43;;;3.90;99.90;;;;;;5053057;28;20491;-71
2024/01/27 02:23:06;;;;;;;6.53;3.50;;;3.90;99.90;;;;;;5052792;28;20413;-70
2024/01/27 02:25:32;;;;;;;4.13;2.60;;;4.00;99.90;;;;;;5053090;28;20186;-71
2024/01/27 02:27:58;;;;;;;5.23;2.87;;;4.00;99.90;;;;;;5072984;28;20189;-71
2024/01/27 02:30:23;;;;;;;4.50;2.50;;;4.00;99.90;;;;;;5072669;28;20862;-70
2024/01/27 02:32:49;;;;;;;6.67;3.30;;;3.90;99.90;;;;;;5072744;28;20172;-71
2024/01/27 02:35:15;;;;;;;4.80;2.70;;;3.90;99.90;;;;;;5072945;28;20165;-71
2024/01/27 02:37:41;;;;;;;2.80;2.20;;;3.90;99.90;;;;;;5072448;28;20191;-70
2024/01/27 02:40:09;;;;;;;3.97;2.60;;;4.00;99.90;;;;;;5072157;28;20441;-70
2024/01/27 02:42:35;;;;;;;4.13;2.40;;;3.90;99.90;;;;;;5072692;28;20174;-70
2024/01/27 02:45:01;;;;;;;4.90;2.73;;;3.90;99.90;;;;;;5073040;28;20411;-70
2024/01/27 02:47:26;;;;;;;6.33;2.87;;;3.90;99.90;;;;;;5072489;28;20430;-70
2024/01/27 02:49:53;;;;;;;4.47;2.53;;;3.90;99.90;;;;;;5072611;28;20316;-70
2024/01/27 02:52:18;;;;;;;3.20;2.57;;;3.90;99.90;;;;;;5072760;28;20538;-69
2024/01/27 02:54:44;;;;;;;7.23;2.67;;;3.90;99.90;;;;;;5072955;28;20551;-70
2024/01/27 02:57:10;;;;;;;3.30;2.90;;;3.80;99.90;;;;;;5054519;28;20799;-70
2024/01/27 02:59:35;;;;;;;7.60;4.00;;;3.90;99.90;;;;;;5072411;28;20186;-70
2024/01/27 03:02:01;;;;;;;8.13;3.23;;;3.80;99.90;;;;;;5072680;28;20196;-71
2024/01/27 03:04:26;;;;;;;5.80;3.40;;;3.80;99.90;;;;;;5072532;28;20265;-70
2024/01/27 03:06:52;;;;;;;10.13;3.43;;;3.70;99.90;;;;;;5072412;28;20174;-71
2024/01/27 03:09:18;;;;;;;5.77;3.83;;;3.70;99.90;;;;;;5072275;28;20186;-71
2024/01/27 03:11:43;;;;;;;3.20;2.70;;;3.70;99.90;;;;;;5072508;28;20201;-71
2024/01/27 03:14:10;;;;;;;6.43;3.20;;;3.70;99.90;;;;;;5072418;28;20170;-71
2024/01/27 03:16:36;;;;;;;4.20;2.77;;;3.80;99.90;;;;;;5072196;28;20161;-70
2024/01/27 03:19:01;;;;;;;6.37;3.20;;;3.80;99.90;;;;;;5072349;28;20427;-70
2024/01/27 03:21:27;;;;;;;5.17;2.77;;;3.80;99.90;;;;;;5072252;28;20181;-71
2024/01/27 03:23:53;;;;;;;5.27;2.70;;;3.80;99.90;;;;;;5072745;28;20256;-70
2024/01/27 03:26:18;;;;;;;4.07;2.90;;;3.80;99.90;;;;;;5072418;28;20181;-70
2024/01/27 03:28:44;;;;;;;9.47;3.30;;;3.70;99.90;;;;;;5072103;28;20572;-70
2024/01/27 03:31:09;;;;;;;4.70;3.30;;;3.60;99.90;;;;;;5073079;28;20197;-70
2024/01/27 03:33:35;;;;;;;7.37;2.97;;;3.60;99.90;;;;;;5072096;28;20176;-71
2024/01/27 03:36:00;;;;;;;9.97;3.60;;;3.60;99.90;;;;;;5072273;28;20253;-71
2024/01/27 03:38:26;;;;;;;10.93;3.40;;;3.50;99.90;;;;;;5071991;28;20200;-71
2024/01/27 03:40:51;;;;;;;7.60;3.80;;;3.50;99.90;;;;;;5071985;28;20174;-70
2024/01/27 03:43:17;;;;;;;4.23;3.10;;;3.50;99.90;;;;;;5072350;28;20647;-71
2024/01/27 03:45:42;;;;;;;5.47;3.50;;;3.50;99.90;;;;;;5072001;28;20644;-71
2024/01/27 03:48:08;;;;;;;4.63;3.27;;;3.60;99.90;;;;;;5072194;28;20257;-70
2024/01/27 03:50:34;;;;;;;5.67;3.10;;;3.50;99.90;;;;;;5095241;22;20230;-68
2024/01/27 03:52:59;;;;;;;4.03;3.23;;;3.50;99.90;;;;;;5072360;28;20644;-68
2024/01/27 03:55:25;;;;;;;8.70;3.97;;;3.50;99.90;;;;;;5072190;28;20170;-69
2024/01/27 03:57:50;;;;;;;5.33;3.13;;;3.50;99.90;;;;;;5072886;28;20192;-70
2024/01/27 04:00:16;;;;;;;5.40;3.00;;;3.50;99.90;;;;;;5075624;28;20287;-69
2024/01/27 04:02:41;;;;;;;7.30;3.17;;;3.50;99.90;;;;;;5057604;28;20170;-69
2024/01/27 04:05:07;;;;;;;9.67;3.70;;;3.50;99.90;;;;;;5076064;28;20272;-69
2024/01/27 04:07:33;;;;;;;8.37;4.40;;;3.40;99.90;;;;;;5075844;28;20223;-69
2024/01/27 04:09:58;;;;;;;4.37;3.00;;;3.50;99.90;;;;;;5057434;28;20213;-69
2024/01/27 04:12:24;;;;;;;4.53;2.97;;;3.50;99.90;;;;;;5075523;28;20217;-69
2024/01/27 04:14:50;;;;;;;8.30;3.53;;;3.50;99.90;;;;;;5075668;28;20196;-69
2024/01/27 04:17:15;;;;;;;6.27;4.13;;;3.50;99.90;;;;;;5075703;28;20245;-69
2024/01/27 04:19:41;;;;;;;6.57;2.83;;;3.50;99.90;;;;;;5075310;28;20194;-69
2024/01/27 04:22:07;;;;;;;6.20;3.93;;;3.40;99.90;;;;;;5075279;28;20209;-68
2024/01/27 04:24:32;;;;;;;5.10;3.07;;;3.40;99.90;;;;;;5075626;28;20178;-69
2024/01/27 04:26:59;;;;;;;4.40;2.97;;;3.40;99.90;;;;;;5075402;28;20907;-69
2024/01/27 04:29:24;;;;;;;6.13;3.10;;;3.30;99.90;;;;;;5063919;28;20191;-69
2024/01/27 04:31:50;;;;;;;6.40;3.03;;;3.40;99.90;;;;;;5055199;28;20582;-69
2024/01/27 04:34:16;;;;;;;5.20;3.00;;;3.40;99.90;;;;;;5055797;28;20691;-69
2024/01/27 04:36:42;;;;;;;8.93;3.53;;;3.40;99.90;;;;;;5063307;28;20495;-69
2024/01/27 04:39:07;;;;;;;6.57;3.40;;;3.50;99.90;;;;;;5074933;28;20217;-69
2024/01/27 04:41:33;;;;;;;7.30;4.00;;;3.40;99.90;;;;;;5074347;28;20224;-70
2024/01/27 04:43:58;;;;;;;5.63;3.07;;;3.50;99.90;;;;;;5074838;28;20173;-70
2024/01/27 04:46:24;;;;;;;8.07;3.47;;;3.40;99.90;;;;;;5056972;28;20563;-70
2024/01/27 04:48:50;;;;;;;6.40;3.13;;;3.40;99.90;;;;;;5074674;28;20177;-70
2024/01/27 04:51:15;;;;;;;8.53;3.67;;;3.40;99.90;;;;;;5075072;28;20178;-70
2024/01/27 04:53:41;;;;;;;5.80;2.90;;;3.40;99.90;;;;;;5075014;28;20219;-70
2024/01/27 04:56:07;;;;;;;5.80;3.30;;;3.50;99.90;;;;;;5074884;28;20168;-70
2024/01/27 04:58:34;;;;;;;8.07;3.90;;;3.50;99.90;;;;;;5056748;28;20546;-70
2024/01/27 05:01:01;;;;;;;4.30;3.67;;;3.50;99.90;;;;;;5056502;28;20809;-71
2024/01/27 05:03:27;;;;;;;6.83;2.80;;;3.50;99.90;;;;;;5074857;28;20412;-70
2024/01/27 05:05:53;;;;;;;5.33;3.60;;;3.40;99.90;;;;;;5074417;28;20771;-70
2024/01/27 05:08:19;;;;;;;4.30;3.17;;;3.30;99.90;;;;;;5074972;28;20170;-70
2024/01/27 05:10:44;;;;;;;5.50;3.10;;;3.30;99.90;;;;;;5074140;28;20451;-70
2024/01/27 05:13:10;;;;;;;4.47;3.00;;;3.30;99.90;;;;;;5074747;28;20397;-70
2024/01/27 05:15:36;;;;;;;8.10;3.50;;;3.40;99.90;;;;;;5074836;28;20276;-69
2024/01/27 05:18:02;;;;;;;4.77;3.10;;;3.30;99.90;;;;;;5074769;28;20611;-70
2024/01/27 05:20:27;;;;;;;3.27;2.90;;;3.40;99.90;;;;;;5074308;28;20758;-71
2024/01/27 05:22:53;;;;;;;3.67;2.83;;;3.40;99.90;;;;;;5075101;28;20184;-70
2024/01/27 05:25:19;;;;;;;7.23;3.23;;;3.50;99.90;;;;;;5074195;28;20163;-70
2024/01/27 05:27:44;;;;;;;5.17;3.00;;;3.50;99.90;;;;;;5074281;28;20162;-68
2024/01/27 05:30:10;;;;;;;9.77;3.33;;;3.40;99.90;;;;;;5056040;28;20563;-69
2024/01/27 05:32:36;;;;;;;7.13;2.97;;;3.30;99.90;;;;;;5074099;28;20208;-68
2024/01/27 05:35:03;;;;;;;8.37;3.37;;;3.30;99.90;;;;;;5074165;28;20408;-68
2024/01/27 05:37:28;;;;;;;5.97;2.90;;;3.30;99.90;;;;;;5073995;28;20170;-70
2024/01/27 05:39:54;;;;;;;4.30;3.13;;;3.30;99.90;;;;;;5073890;28;20984;-69
2024/01/27 05:42:19;;;;;;;4.63;3.33;;;3.20;99.90;;;;;;5066106;28;20170;-69
2024/01/27 05:44:45;;;;;;;7.17;3.67;;;3.10;99.90;;;;;;5064028;28;20216;-69
2024/01/27 05:47:11;;;;;;;8.20;4.70;;;3.10;99.90;;;;;;5064177;28;20185;-69
2024/01/27 05:49:36;;;;;;;5.90;3.10;;;3.10;99.90;;;;;;5063881;28;20689;-69
2024/01/27 05:52:02;;;;;;;5.70;3.43;;;3.00;99.90;;;;;;5063858;28;20205;-69
2024/01/27 05:54:28;;;;;;;8.60;3.70;;;2.90;99.90;;;;;;5064131;28;20202;-69
2024/01/27 05:56:54;;;;;;;6.57;3.30;;;3.00;99.90;;;;;;5063982;28;20419;-69
2024/01/27 05:59:19;;;;;;;6.80;3.80;;;2.90;99.90;;;;;;5063871;28;20645;-69
2024/01/27 06:01:45;;;;;;;6.20;3.60;;;2.90;99.90;;;;;;5064197;28;20277;-70
2024/01/27 06:04:13;;;;;;;5.70;3.03;;;2.80;99.90;;;;;;5064244;28;20581;-69
2024/01/27 06:06:39;;;;;;;6.27;3.30;;;2.90;99.90;;;;;;5045900;28;20199;-70
2024/01/27 06:09:05;;;;;;;8.83;3.20;;;2.90;99.90;;;;;;5064026;28;20836;-69
2024/01/27 06:11:30;;;;;;;4.90;3.27;;;2.90;99.90;;;;;;5063595;28;20240;-70
2024/01/27 06:13:58;;;;;;;10.23;4.30;;;2.90;99.90;;;;;;5063829;28;20205;-69
2024/01/27 06:16:23;;;;;;;6.90;4.33;;;2.90;99.90;;;;;;5063948;28;20170;-69
2024/01/27 06:18:49;;;;;;;7.20;3.03;;;2.90;99.90;;;;;;5063134;28;20494;-68
2024/01/27 06:21:15;;;;;;;5.93;3.33;;;3.00;99.90;;;;;;5045600;28;20548;-69
2024/01/27 06:23:40;;;;;;;5.77;3.30;;;3.00;99.90;;;;;;5063787;28;20936;-68
2024/01/27 06:26:07;;;;;;;5.97;3.70;;;3.10;99.90;;;;;;5063301;28;20193;-70
2024/01/27 06:28:34;;;;;;;9.07;3.63;;;3.10;99.90;;;;;;5063634;28;20204;-70
2024/01/27 06:31:00;;;;;;;6.60;3.80;;;3.20;99.90;;;;;;5063593;28;20531;-69
2024/01/27 06:33:25;;;;;;;12.60;3.50;;;3.30;99.90;;;;;;5045462;28;20484;-69
2024/01/27 06:35:51;;;;;;;10.67;4.33;;;3.10;99.90;;;;;;5047016;28;20404;-68
2024/01/27 06:38:16;;;;;;;6.93;2.93;;;3.00;99.90;;;;;;5072757;28;20166;-69
2024/01/27 06:40:42;;;;;;;6.93;3.70;;;3.10;99.90;;;;;;5072890;28;20185;-68
2024/01/27 06:43:08;;;;;;;8.70;3.03;;;3.00;99.90;;;;;;5072843;28;20162;-69
2024/01/27 06:45:34;;;;;;;7.20;3.60;;;2.90;99.90;;;;;;5073103;28;20173;-68
2024/01/27 06:48:00;;;;;;;9.47;3.50;;;2.80;99.90;;;;;;5072683;28;20388;-69
2024/01/27 06:50:25;;;;;;;3.80;3.20;;;2.80;99.90;;;;;;5072211;28;20708;-69
2024/01/27 06:52:52;;;;;;;6.03;3.33;;;2.80;99.90;;;;;;5072420;28;20209;-69
2024/01/27 06:55:17;;;;;;;4.60;3.13;;;2.70;99.90;;;;;;5073006;28;20549;-69
2024/01/27 06:57:43;;;;;;;9.77;4.43;;;2.60;99.90;;;;;;5072436;28;20403;-70
2024/01/27 07:00:09;;;;;;;6.50;4.20;;;2.60;99.90;;;;;;5072559;28;20185;-69
2024/01/27 07:02:34;;;;;;;7.13;3.43;;;2.60;99.90;;;;;;5072805;28;20187;-68
2024/01/27 07:05:00;;;;;;;10.57;4.97;;;2.60;99.90;;;;;;5072582;28;20487;-69
2024/01/27 07:07:27;;;;;;;5.33;3.30;;;2.80;99.90;;;;;;5072342;28;20170;-69
2024/01/27 07:09:57;;;;;;;9.43;4.20;;;2.80;99.90;;;;;;5072255;28;20551;-69
2024/01/27 07:12:23;;;;;;;10.93;5.50;;;2.90;99.90;;;;;;5054396;28;20462;-68
2024/01/27 07:14:49;;;;;;;10.87;4.70;;;2.90;99.90;;;;;;5071802;28;20406;-69
2024/01/27 07:17:15;;;;;;;15.60;6.00;;;3.00;99.90;;;;;;5072118;28;20404;-69
2024/01/27 07:19:41;;;;;;;8.20;3.97;;;2.90;99.90;;;;;;5072361;28;20430;-69
2024/01/27 07:22:06;;;;;;;5.10;4.17;;;2.90;99.90;;;;;;5072390;28;20227;-70
2024/01/27 07:24:32;;;;;;;6.77;3.80;;;2.80;99.90;;;;;;5072483;28;20178;-69
2024/01/27 07:27:00;;;;;;;7.13;4.43;;;2.80;99.90;;;;;;5072232;28;20651;-69
2024/01/27 07:29:26;;;;;;;7.17;3.70;;;2.90;99.90;;;;;;5072440;28;20198;-69
2024/01/27 07:31:52;;;;;;;6.37;3.70;;;3.00;99.90;;;;;;5072667;28;20535;-69
2024/01/27 07:34:19;;;;;;;13.10;4.27;;;3.00;99.90;;;;;;5075531;28;20173;-69
2024/01/27 07:36:45;;;;;;;6.07;4.30;;;3.00;99.90;;;;;;5058298;28;20436;-69
2024/01/27 07:39:10;;;;;;;12.90;6.40;;;3.00;99.90;;;;;;5075964;28;20474;-68
2024/01/27 07:41:36;;;;;;;11.97;5.27;;;2.90;99.90;;;;;;5075940;28;20416;-69
2024/01/27 07:44:13;;;;;;;8.80;3.87;;;3.00;99.90;;;;;;5076207;28;20209;-69
2024/01/27 07:46:39;;;;;;;10.67;4.73;;;3.10;99.90;;;;;;5076063;28;20170;-69
2024/01/27 07:49:08;;;;;;;13.23;4.90;;;3.20;99.90;;;;;;5075736;28;20585;-69
2024/01/27 07:51:34;;;;;;;7.33;4.90;;;3.10;99.90;;;;;;5076285;28;20443;-69
2024/01/27 07:54:00;;;;;;;12.33;6.10;;;3.10;99.90;;;;;;5075782;28;20462;-72
2024/01/27 07:56:26;;;;;;;10.80;5.33;;;3.20;99.90;;;;;;5075646;28;20224;-68
2024/01/27 07:58:52;;;;;;;14.03;6.70;;;3.30;99.90;;;;;;5075945;28;20768;-69
2024/01/27 08:01:18;;;;;;;14.10;5.70;;;3.30;99.90;;;;;;5075699;28;20487;-68
2024/01/27 08:03:44;;;;;;;10.30;5.23;;;3.30;99.90;;;;;;5075479;28;20540;-68
2024/01/27 08:06:27;;;;;;;10.03;5.97;;;3.10;99.90;;;;;;5075549;28;20400;-69
2024/01/27 08:08:52;;;;;;;11.53;6.37;;;3.10;99.90;;;;;;5075656;28;20642;-68
2024/01/27 08:11:18;;;;;;;10.67;6.40;;;3.20;99.90;;;;;;5075701;28;20483;-69
2024/01/27 08:13:44;;;;;;;8.07;4.60;;;3.20;99.90;;;;;;5075729;28;20628;-68
2024/01/27 08:16:12;;;;;;;9.90;5.10;;;3.10;99.90;;;;;;5075824;28;20261;-69
2024/01/27 08:18:39;;;;;;;9.53;5.70;;;3.20;99.90;;;;;;5075424;28;20405;-69
2024/01/27 08:21:05;;;;;;;7.40;4.93;;;3.30;99.90;;;;;;5075362;28;20443;-68
2024/01/27 08:23:30;;;;;;;7.10;4.03;;;3.30;99.90;;;;;;5075122;28;20400;-68
2024/01/27 08:25:56;;;;;;;8.83;4.93;;;3.40;99.90;;;;;;5061359;28;20412;-68
2024/01/27 08:28:22;;;;;;;7.50;4.07;;;3.40;99.90;;;;;;5073366;28;20185;-69
2024/01/27 08:30:48;;;;;;;7.40;4.37;;;3.50;99.90;;;;;;5074912;28;20196;-69
2024/01/27 08:33:14;;;;;;;7.07;4.17;;;3.50;99.90;;;;;;5074199;28;20404;-69
2024/01/27 08:35:39;;;;;;;9.93;3.57;;;3.60;99.90;;;;;;5075463;28;20177;-69
2024/01/27 08:38:06;;;;;;;8.13;5.07;;;3.70;99.90;;;;;;5075054;28;20448;-70
2024/01/27 08:40:32;;;;;;;9.93;4.77;;;3.70;99.90;;;;;;5075208;28;20271;-69
2024/01/27 08:42:57;;;;;;;6.23;4.50;;;3.80;99.90;;;;;;5056993;28;20792;-69
2024/01/27 08:45:23;;;;;;;7.03;3.70;;;3.80;99.90;;;;;;5075300;28;20483;-68
2024/01/27 08:47:49;;;;;;;5.57;3.97;;;3.90;99.90;;;;;;5076100;28;20245;-69
2024/01/27 08:50:14;;;;;;;10.43;4.53;;;3.90;99.90;;;;;;5076241;28;20946;-68
2024/01/27 08:52:40;;;;;;;8.27;4.03;;;4.10;99.90;;;;;;5057890;28;20194;-68
2024/01/27 08:55:06;;;;;;;7.63;3.90;;;4.20;99.90;;;;;;5075747;28;20170;-69
2024/01/27 08:57:31;;;;;;;8.20;4.20;;;4.20;99.90;;;;;;5080703;28;20227;-69
2024/01/27 08:59:57;;;;;;;11.13;5.47;;;4.30;99.90;;;;;;5083476;28;20425;-69
2024/01/27 09:02:23;;;;;;;11.57;6.23;;;4.40;99.90;;;;;;5074776;28;20260;-69
2024/01/27 09:04:48;;;;;;;9.77;7.33;;;4.40;99.90;;;;;;5075167;28;20416;-69
2024/01/27 09:07:14;;;;;;;7.93;6.30;;;4.40;99.90;;;;;;5074544;28;20173;-69
2024/01/27 09:09:40;;;;;;;8.67;5.93;;;4.60;99.90;;;;;;5074582;28;20190;-68
2024/01/27 09:12:06;;;;;;;10.10;5.70;;;4.70;99.90;;;;;;5074756;28;20216;-68
2024/01/27 09:14:33;;;;;;;12.40;7.10;;;4.80;99.90;;;;;;5074653;28;20270;-68
2024/01/27 09:16:59;;;;;;;9.87;6.70;;;4.60;99.90;;;;;;5074384;28;20495;-68
2024/01/27 09:19:25;;;;;;;8.83;6.90;;;4.70;99.90;;;;;;5074289;28;20427;-68
2024/01/27 09:21:51;;;;;;;9.37;7.23;;;4.60;99.90;;;;;;5074928;28;20418;-67
2024/01/27 09:24:16;;;;;;;8.93;7.00;;;4.70;99.90;;;;;;5074303;28;20174;-68
2024/01/27 09:26:42;;;;;;;8.00;6.90;;;4.70;99.90;;;;;;5074330;28;20166;-69
2024/01/27 09:29:08;;;;;;;10.47;6.50;;;4.90;99.90;;;;;;5074016;28;20656;-68
2024/01/27 09:31:34;;;;;;;8.93;7.20;;;5.00;99.90;;;;;;5074234;28;20620;-68
2024/01/27 09:33:59;;;;;;;14.63;7.40;;;4.90;99.90;;;;;;5074193;28;20492;-68
2024/01/27 09:36:25;;;;;;;10.73;6.83;;;4.90;99.90;;;;;;5073798;28;20198;-69
2024/01/27 09:38:52;;;;;;;7.50;6.80;;;4.80;99.90;;;;;;5074067;28;20205;-68
2024/01/27 09:41:18;;;;;;;15.57;8.07;;;5.00;99.90;;;;;;5073745;28;20412;-69
2024/01/27 09:43:45;;;;;;;10.10;7.10;;;5.00;99.90;;;;;;5073718;28;20409;-68
2024/01/27 09:46:15;;;;;;;8.93;7.07;;;5.00;99.90;;;;;;5073691;28;20501;-68
2024/01/27 09:48:41;;;;;;;10.53;6.93;;;5.20;99.90;;;;;;5073458;28;20787;-68
2024/01/27 09:51:08;;;;;;;11.83;6.93;;;5.40;99.90;;;;;;5078366;23;20476;-65
2024/01/27 09:53:34;;;;;;;11.17;7.87;;;5.50;99.90;;;;;;5073714;28;20170;-65
2024/01/27 09:56:04;;;;;;;10.30;8.17;;;5.60;99.90;;;;;;5073577;28;20472;-66
2024/01/27 09:58:30;;;;;;;13.13;8.00;;;5.70;99.90;;;;;;5073518;28;20171;-66
2024/01/27 10:00:58;;;;;;;13.23;8.10;;;5.90;99.90;;;;;;5073215;28;20449;-67
2024/01/27 10:03:28;;;;;;;12.03;7.57;;;5.90;99.90;;;;;;5073484;28;20398;-67
2024/01/27 10:05:56;;;;;;;9.43;7.90;;;5.90;99.90;;;;;;5072555;28;20518;-67
2024/01/27 10:08:22;;;;;;;10.33;6.67;;;6.00;99.90;;;;;;5073378;28;20753;-67
2024/01/27 10:10:58;;;;;;;11.00;6.90;;;6.10;99.90;;;;;;5073260;28;20447;-67
2024/01/27 10:13:26;;;;;;;10.93;7.30;;;6.10;99.90;;;;;;5073731;28;20772;-67
2024/01/27 10:16:05;;;;;;;8.63;6.43;;;6.10;99.90;;;;;;5073225;28;20411;-67
2024/01/27 10:18:31;;;;;;;11.63;6.30;;;6.20;99.90;;;;;;5073009;28;20463;-65
2024/01/27 10:20:57;;;;;;;12.63;6.93;;;6.50;99.90;;;;;;5072756;28;20426;-67
2024/01/27 10:23:23;;;;;;;14.00;6.93;;;6.70;99.90;;;;;;5072998;28;20438;-67
2024/01/27 10:25:50;;;;;;;10.00;6.97;;;6.60;99.90;;;;;;5073047;28;20187;-67
2024/01/27 10:28:16;;;;;;;11.70;8.20;;;6.70;99.90;;;;;;5073038;28;20532;-67
2024/01/27 10:30:42;;;;;;;12.77;6.33;;;6.90;99.90;;;;;;5071157;28;20920;-67
2024/01/27 10:33:13;;;;;;;10.17;5.87;;;6.80;99.90;;;;;;5071310;28;20422;-66
2024/01/27 10:35:39;;;;;;;8.90;5.50;;;7.00;99.90;;;;;;5072958;28;20487;-66
2024/01/27 10:38:05;;;;;;;12.90;5.87;;;7.10;99.90;;;;;;5054852;28;20523;-67
2024/01/27 10:40:31;;;;;;;6.90;5.50;;;7.00;99.90;;;;;;5072583;28;20995;-67
2024/01/27 10:43:04;;;;;;;9.13;6.20;;;6.90;99.90;;;;;;5073051;28;20221;-67
2024/01/27 10:45:37;;;;;;;9.93;5.40;;;6.80;99.90;;;;;;5072930;28;20390;-65
2024/01/27 10:48:03;;;;;;;10.73;6.73;;;6.90;99.90;;;;;;5072549;28;20400;-67
2024/01/27 10:50:29;;;;;;;7.83;6.93;;;7.20;99.90;;;;;;5074493;28;20454;-65
2024/01/27 10:52:58;;;;;;;8.70;5.70;;;7.40;99.90;;;;;;5076386;28;20454;-65
2024/01/27 10:55:24;;;;;;;9.00;6.10;;;7.50;99.90;;;;;;5074880;28;20243;-66
2024/01/27 10:57:53;;;;;;;10.03;5.20;;;7.40;99.90;;;;;;5072863;28;20407;-67
2024/01/27 11:00:19;;;;;;;7.67;5.30;;;7.30;99.90;;;;;;5072327;28;20465;-66
2024/01/27 11:02:45;;;;;;;9.40;5.40;;;7.20;99.90;;;;;;5073211;28;20414;-66
2024/01/27 11:05:13;;;;;;;10.70;5.53;;;7.30;99.90;;;;;;5072670;28;20523;-66
2024/01/27 11:07:41;;;;;;;8.13;4.80;;;7.20;99.90;;;;;;5053728;28;20477;-66
2024/01/27 11:10:07;;;;;;;17.13;8.03;;;7.20;99.90;;;;;;5056915;28;20429;-66
2024/01/27 11:12:34;;;;;;;5.93;5.30;;;7.40;99.90;;;;;;5056432;28;20456;-66
2024/01/27 11:15:00;;;;;;;8.43;5.60;;;8.20;99.90;;;;;;5056616;28;20428;-66
2024/01/27 11:17:25;;;;;;;8.30;5.40;;;9.40;99.90;;;;;;5074676;28;20537;-66
2024/01/27 11:19:51;;;;;;;11.23;5.10;;;11.50;99.90;;;;;;5076734;28;20666;-66
2024/01/27 11:22:30;;;;;;;9.37;5.60;;;12.90;99.90;;;;;;5076701;28;20228;-65
2024/01/27 11:25:08;;;;;;;9.67;5.40;;;13.30;99.20;;;;;;5077076;28;20151;-66
2024/01/27 11:27:35;;;;;;;11.97;5.60;;;13.50;99.30;;;;;;5077136;28;20472;-66
2024/01/27 11:30:00;;;;;;;9.80;4.93;;;13.50;97.40;;;;;;5076524;28;20430;-67
2024/01/27 11:32:26;;;;;;;10.17;6.00;;;13.80;97.70;;;;;;5076104;28;20554;-68
2024/01/27 11:34:52;;;;;;;6.70;4.53;;;15.00;95.30;;;;;;5076293;28;20165;-67
2024/01/27 11:37:24;;;;;;;8.13;5.03;;;15.20;93.50;;;;;;5076355;28;20412;-67
2024/01/27 11:39:49;;;;;;;10.57;7.00;;;15.00;93.50;;;;;;5076402;28;20275;-67
2024/01/27 11:42:15;;;;;;;8.70;4.90;;;14.90;93.50;;;;;;5076586;28;20826;-66
2024/01/27 11:44:42;;;;;;;8.00;4.80;;;14.60;92.70;;;;;;5076365;28;20177;-67
2024/01/27 11:47:18;;;;;;;5.97;3.80;;;14.50;93.40;;;;;;5075957;28;20504;-66
2024/01/27 11:49:52;;;;;;;5.33;3.60;;;15.30;92.30;;;;;;5076000;28;20837;-67
2024/01/27 11:52:17;;;;;;;7.53;4.40;;;15.90;91.70;;;;;;5076151;28;20818;-67
2024/01/27 11:54:43;;;;;;;9.67;5.50;;;16.10;90.60;;;;;;5075962;28;20404;-67
2024/01/27 11:57:09;;;;;;;7.43;5.20;;;16.20;90.20;;;;;;5075718;28;20170;-67
2024/01/27 11:59:35;;;;;;;9.63;5.20;;;16.80;89.70;;;;;;5075929;28;20418;-67
2024/01/27 12:02:01;;;;;;;8.70;4.70;;;17.00;85.80;;;;;;5075780;28;20200;-67
2024/01/27 12:04:27;;;;;;;9.63;5.23;;;16.70;86.10;;;;;;5076257;28;20212;-67
2024/01/27 12:06:53;;;;;;;9.20;4.90;;;16.80;85.70;;;;;;5076080;28;20451;-67
2024/01/27 12:09:19;;;;;;;9.37;5.10;;;16.60;85.10;;;;;;5075514;28;20166;-67
2024/01/27 12:11:45;;;;;;;7.83;5.53;;;17.80;84.10;;;;;;5075302;28;20462;-67
2024/01/27 12:14:11;;;;;;;7.20;4.47;;;17.20;83.70;;;;;;5075438;28;20970;-67
2024/01/27 12:16:38;;;;;;;8.10;4.40;;;17.70;81.50;;;;;;5075561;28;20408;-67
2024/01/27 12:19:03;;;;;;;6.83;4.30;;;17.80;81.60;;;;;;5074605;28;20182;-67
2024/01/27 12:21:29;;;;;;;7.97;5.00;;;18.50;78.30;;;;;;5075582;28;20407;-67
2024/01/27 12:23:58;;;;;;;4.33;3.83;;;19.10;76.60;;;;;;5057308;28;20245;-67
2024/01/27 12:26:30;;;;;;;5.53;3.80;;;19.20;77.20;;;;;;5075276;28;20192;-67
2024/01/27 12:29:00;;;;;;;7.33;4.20;;;19.50;73.80;;;;;;5075350;28;20405;-67
2024/01/27 12:31:26;;;;;;;8.20;3.77;;;19.20;73.60;;;;;;5075059;28;20456;-67
2024/01/27 12:33:55;;;;;;;9.73;4.20;;;20.20;71.70;;;;;;5075465;28;20777;-68
2024/01/27 12:36:21;;;;;;;5.50;4.30;;;20.10;69.10;;;;;;5075244;28;20806;-66
2024/01/27 12:39:08;;;;;;;9.20;4.23;;;19.40;68.90;;;;;;5074998;28;20400;-68
2024/01/27 12:41:34;;;;;;;7.53;4.20;;;18.80;70.40;;;;;;5071732;28;20419;-67
2024/01/27 12:44:00;;;;;;;9.53;4.30;;;18.10;71.30;;;;;;5075238;28;20416;-66
2024/01/27 12:46:25;;;;;;;5.90;4.30;;;18.50;70.40;;;;;;5074874;28;20556;-66
2024/01/27 12:48:51;;;;;;;4.80;3.80;;;19.70;69.30;;;;;;5074503;28;20182;-67